sensor_id;sensor_type;location;lat;lon;timestamp;pressure;altitude;pressure_sealevel;temperature;humidity
54144;BME280;40050;47.324;18.792;2023-03-21T00:00:28;1004.07;;;11.86;58.26
54144;BME280;40050;47.324;18.792;2023-03-21T00:02:29;1004.03;;;11.77;58.56
54144;BME280;40050;47.324;18.792;2023-03-21T00:04:30;1004.04;;;11.71;58.82
54144;BME280;40050;47.324;18.792;2023-03-21T00:06:31;1004.05;;;11.68;59.46
54144;BME280;40050;47.324;18.792;2023-03-21T00:08:32;1003.99;;;11.79;60.20
54144;BME280;40050;47.324;18.792;2023-03-21T00:10:33;1003.97;;;11.78;60.48
54144;BME280;40050;47.324;18.792;2023-03-21T00:12:34;1003.97;;;11.72;61.20
54144;BME280;40050;47.324;18.792;2023-03-21T00:14:35;1003.96;;;11.72;61.30
54144;BME280;40050;47.324;18.792;2023-03-21T00:16:36;1003.98;;;11.75;61.47
54144;BME280;40050;47.324;18.792;2023-03-21T00:18:36;1004.00;;;11.77;61.28
54144;BME280;40050;47.324;18.792;2023-03-21T00:20:37;1003.71;;;11.60;61.22
54144;BME280;40050;47.324;18.792;2023-03-21T00:22:38;1003.97;;;11.83;60.81
54144;BME280;40050;47.324;18.792;2023-03-21T00:24:39;1003.95;;;11.82;60.36
54144;BME280;40050;47.324;18.792;2023-03-21T00:26:40;1003.94;;;11.81;60.22
54144;BME280;40050;47.324;18.792;2023-03-21T00:28:41;1003.93;;;11.79;59.99
54144;BME280;40050;47.324;18.792;2023-03-21T00:30:42;1003.96;;;11.81;59.92
54144;BME280;40050;47.324;18.792;2023-03-21T00:32:45;1003.90;;;11.78;59.88
54144;BME280;40050;47.324;18.792;2023-03-21T00:34:46;1003.86;;;11.76;59.82
54144;BME280;40050;47.324;18.792;2023-03-21T00:36:47;1003.83;;;11.76;59.78
54144;BME280;40050;47.324;18.792;2023-03-21T00:38:48;1003.82;;;11.78;59.76
54144;BME280;40050;47.324;18.792;2023-03-21T00:40:49;1003.78;;;11.76;59.74
54144;BME280;40050;47.324;18.792;2023-03-21T00:42:50;1003.75;;;11.73;59.67
54144;BME280;40050;47.324;18.792;2023-03-21T00:44:51;1003.73;;;11.75;59.81
54144;BME280;40050;47.324;18.792;2023-03-21T00:46:52;1003.70;;;11.74;59.57
54144;BME280;40050;47.324;18.792;2023-03-21T00:48:53;1003.71;;;11.73;59.70
54144;BME280;40050;47.324;18.792;2023-03-21T00:50:55;1003.65;;;11.68;59.90
54144;BME280;40050;47.324;18.792;2023-03-21T00:52:56;1003.67;;;11.67;60.21
54144;BME280;40050;47.324;18.792;2023-03-21T00:54:57;1003.74;;;11.69;60.49
54144;BME280;40050;47.324;18.792;2023-03-21T00:56:58;1003.60;;;11.63;60.58
54144;BME280;40050;47.324;18.792;2023-03-21T00:58:59;1003.66;;;11.66;60.88
54144;BME280;40050;47.324;18.792;2023-03-21T01:01:00;1003.63;;;11.64;61.18
54144;BME280;40050;47.324;18.792;2023-03-21T01:03:01;1003.64;;;11.62;61.29
54144;BME280;40050;47.324;18.792;2023-03-21T01:05:02;1003.61;;;11.61;61.30
54144;BME280;40050;47.324;18.792;2023-03-21T01:07:03;1003.61;;;11.59;61.42
54144;BME280;40050;47.324;18.792;2023-03-21T01:09:12;1003.61;;;11.59;61.68
54144;BME280;40050;47.324;18.792;2023-03-21T01:11:15;1003.33;;;11.42;61.54
54144;BME280;40050;47.324;18.792;2023-03-21T01:13:18;1003.58;;;11.55;61.40
54144;BME280;40050;47.324;18.792;2023-03-21T01:15:19;1003.53;;;11.56;61.74
54144;BME280;40050;47.324;18.792;2023-03-21T01:17:20;1003.55;;;11.56;61.49
54144;BME280;40050;47.324;18.792;2023-03-21T01:19:22;1003.55;;;11.56;61.44
54144;BME280;40050;47.324;18.792;2023-03-21T01:21:23;1003.55;;;11.56;61.44
54144;BME280;40050;47.324;18.792;2023-03-21T01:23:25;1003.56;;;11.56;61.31
54144;BME280;40050;47.324;18.792;2023-03-21T01:25:27;1003.51;;;11.55;61.56
54144;BME280;40050;47.324;18.792;2023-03-21T01:27:27;1003.45;;;11.54;61.68
54144;BME280;40050;47.324;18.792;2023-03-21T01:29:28;1003.52;;;11.61;61.63
54144;BME280;40050;47.324;18.792;2023-03-21T01:31:29;1003.51;;;11.60;61.64
54144;BME280;40050;47.324;18.792;2023-03-21T01:33:31;1003.54;;;11.61;61.53
54144;BME280;40050;47.324;18.792;2023-03-21T01:35:35;1003.51;;;11.59;61.64
54144;BME280;40050;47.324;18.792;2023-03-21T01:37:35;1003.46;;;11.54;61.52
54144;BME280;40050;47.324;18.792;2023-03-21T01:39:36;1003.46;;;11.56;61.26
54144;BME280;40050;47.324;18.792;2023-03-21T01:41:38;1003.41;;;11.48;60.81
54144;BME280;40050;47.324;18.792;2023-03-21T01:43:39;1003.44;;;11.42;60.56
54144;BME280;40050;47.324;18.792;2023-03-21T01:48:06;1003.42;;;11.28;61.33
54144;BME280;40050;47.324;18.792;2023-03-21T01:50:07;1003.41;;;11.20;61.67
54144;BME280;40050;47.324;18.792;2023-03-21T01:52:09;1003.44;;;11.18;62.08
54144;BME280;40050;47.324;18.792;2023-03-21T01:54:12;1003.44;;;11.16;62.28
54144;BME280;40050;47.324;18.792;2023-03-21T01:56:22;1003.41;;;11.13;62.31
54144;BME280;40050;47.324;18.792;2023-03-21T01:58:24;1003.40;;;11.11;62.29
54144;BME280;40050;47.324;18.792;2023-03-21T02:00:25;1003.43;;;11.16;62.30
54144;BME280;40050;47.324;18.792;2023-03-21T02:02:40;1003.24;;;11.07;62.33
54144;BME280;40050;47.324;18.792;2023-03-21T02:04:42;1003.45;;;11.18;62.69
54144;BME280;40050;47.324;18.792;2023-03-21T02:06:51;1003.42;;;11.19;62.90
54144;BME280;40050;47.324;18.792;2023-03-21T02:08:54;1003.35;;;11.12;62.98
54144;BME280;40050;47.324;18.792;2023-03-21T02:10:55;1003.38;;;11.18;63.16
54144;BME280;40050;47.324;18.792;2023-03-21T02:12:56;1003.08;;;11.00;63.09
54144;BME280;40050;47.324;18.792;2023-03-21T02:14:58;1003.36;;;11.16;62.98
54144;BME280;40050;47.324;18.792;2023-03-21T02:28:26;1003.52;;;11.26;64.29
54144;BME280;40050;47.324;18.792;2023-03-21T02:37:21;1003.52;;;11.36;63.98
54144;BME280;40050;47.324;18.792;2023-03-21T02:39:24;1003.54;;;11.42;63.79
54144;BME280;40050;47.324;18.792;2023-03-21T02:41:44;1003.50;;;11.44;63.60
54144;BME280;40050;47.324;18.792;2023-03-21T02:43:54;1003.52;;;11.43;63.53
54144;BME280;40050;47.324;18.792;2023-03-21T02:45:59;1003.53;;;11.45;63.52
54144;BME280;40050;47.324;18.792;2023-03-21T02:48:03;1003.47;;;11.50;63.34
54144;BME280;40050;47.324;18.792;2023-03-21T02:50:11;1003.53;;;11.54;63.13
54144;BME280;40050;47.324;18.792;2023-03-21T02:52:15;1003.55;;;11.51;63.18
54144;BME280;40050;47.324;18.792;2023-03-21T02:54:18;1003.57;;;11.52;63.20
54144;BME280;40050;47.324;18.792;2023-03-21T02:56:21;1003.44;;;11.43;63.15
54144;BME280;40050;47.324;18.792;2023-03-21T02:58:24;1003.57;;;11.54;63.13
54144;BME280;40050;47.324;18.792;2023-03-21T03:00:28;1003.57;;;11.56;63.27
54144;BME280;40050;47.324;18.792;2023-03-21T03:02:31;1003.57;;;11.59;63.31
54144;BME280;40050;47.324;18.792;2023-03-21T03:04:32;1003.60;;;11.63;63.39
54144;BME280;40050;47.324;18.792;2023-03-21T03:06:39;1003.61;;;11.67;63.29
54144;BME280;40050;47.324;18.792;2023-03-21T03:08:48;1003.61;;;11.70;62.92
54144;BME280;40050;47.324;18.792;2023-03-21T03:11:11;1003.60;;;11.73;62.56
54144;BME280;40050;47.324;18.792;2023-03-21T03:15:44;1003.59;;;11.63;62.55
54144;BME280;40050;47.324;18.792;2023-03-21T03:17:53;1003.38;;;11.49;62.46
54144;BME280;40050;47.324;18.792;2023-03-21T03:20:14;1003.61;;;11.64;62.36
54144;BME280;40050;47.324;18.792;2023-03-21T03:22:25;1003.58;;;11.54;62.18
54144;BME280;40050;47.324;18.792;2023-03-21T03:24:32;1003.62;;;11.53;62.07
54144;BME280;40050;47.324;18.792;2023-03-21T03:26:40;1003.60;;;11.50;61.89
54144;BME280;40050;47.324;18.792;2023-03-21T03:28:51;1003.51;;;11.45;61.81
54144;BME280;40050;47.324;18.792;2023-03-21T03:30:53;1003.57;;;11.42;61.87
54144;BME280;40050;47.324;18.792;2023-03-21T03:32:56;1003.54;;;11.38;61.93
54144;BME280;40050;47.324;18.792;2023-03-21T03:34:59;1003.54;;;11.35;62.02
54144;BME280;40050;47.324;18.792;2023-03-21T03:37:01;1003.53;;;11.31;62.12
54144;BME280;40050;47.324;18.792;2023-03-21T03:39:04;1003.51;;;11.28;61.90
54144;BME280;40050;47.324;18.792;2023-03-21T03:41:09;1003.45;;;11.23;61.61
54144;BME280;40050;47.324;18.792;2023-03-21T03:43:14;1003.51;;;11.22;61.49
54144;BME280;40050;47.324;18.792;2023-03-21T03:45:17;1003.51;;;11.16;61.42
54144;BME280;40050;47.324;18.792;2023-03-21T03:47:20;1003.51;;;11.13;61.44
54144;BME280;40050;47.324;18.792;2023-03-21T03:49:24;1003.17;;;10.87;61.49
54144;BME280;40050;47.324;18.792;2023-03-21T03:51:29;1003.47;;;11.00;61.64
54144;BME280;40050;47.324;18.792;2023-03-21T03:53:53;1003.54;;;11.00;61.93
54144;BME280;40050;47.324;18.792;2023-03-21T03:55:45;1003.50;;;10.99;62.06
54144;BME280;40050;47.324;18.792;2023-03-21T03:57:47;1003.53;;;11.02;62.14
54144;BME280;40050;47.324;18.792;2023-03-21T03:59:48;1003.56;;;11.01;62.19
54144;BME280;40050;47.324;18.792;2023-03-21T04:01:50;1003.58;;;11.00;62.06
54144;BME280;40050;47.324;18.792;2023-03-21T04:03:50;1003.52;;;10.95;61.78
54144;BME280;40050;47.324;18.792;2023-03-21T04:05:51;1003.50;;;10.92;61.88
54144;BME280;40050;47.324;18.792;2023-03-21T04:07:52;1003.28;;;10.96;62.10
54144;BME280;40050;47.324;18.792;2023-03-21T04:09:53;1003.60;;;10.96;62.21
54144;BME280;40050;47.324;18.792;2023-03-21T04:11:55;1003.60;;;10.96;61.92
54144;BME280;40050;47.324;18.792;2023-03-21T04:13:56;1003.53;;;10.92;61.78
54144;BME280;40050;47.324;18.792;2023-03-21T04:15:57;1003.60;;;10.94;61.44
54144;BME280;40050;47.324;18.792;2023-03-21T04:17:58;1003.52;;;10.92;61.00
54144;BME280;40050;47.324;18.792;2023-03-21T04:19:59;1003.56;;;10.93;60.92
54144;BME280;40050;47.324;18.792;2023-03-21T04:22:00;1003.31;;;10.78;60.92
54144;BME280;40050;47.324;18.792;2023-03-21T04:24:01;1003.56;;;10.91;60.79
54144;BME280;40050;47.324;18.792;2023-03-21T04:26:02;1003.56;;;10.87;60.23
54144;BME280;40050;47.324;18.792;2023-03-21T04:28:03;1003.61;;;10.86;60.47
54144;BME280;40050;47.324;18.792;2023-03-21T04:30:04;1003.57;;;10.83;60.67
54144;BME280;40050;47.324;18.792;2023-03-21T04:32:05;1003.54;;;10.78;60.75
54144;BME280;40050;47.324;18.792;2023-03-21T04:34:06;1003.60;;;10.77;60.69
54144;BME280;40050;47.324;18.792;2023-03-21T04:36:07;1003.57;;;10.75;60.62
54144;BME280;40050;47.324;18.792;2023-03-21T04:38:08;1003.58;;;10.70;60.63
54144;BME280;40050;47.324;18.792;2023-03-21T04:40:10;1003.60;;;10.70;60.49
54144;BME280;40050;47.324;18.792;2023-03-21T04:42:11;1003.58;;;10.68;60.68
54144;BME280;40050;47.324;18.792;2023-03-21T04:44:13;1003.60;;;10.66;61.18
54144;BME280;40050;47.324;18.792;2023-03-21T04:46:14;1003.60;;;10.65;61.75
54144;BME280;40050;47.324;18.792;2023-03-21T04:48:15;1003.57;;;10.64;61.48
54144;BME280;40050;47.324;18.792;2023-03-21T04:50:16;1003.51;;;10.60;61.37
54144;BME280;40050;47.324;18.792;2023-03-21T04:52:17;1003.52;;;10.59;61.31
54144;BME280;40050;47.324;18.792;2023-03-21T04:54:18;1003.51;;;10.51;61.35
54144;BME280;40050;47.324;18.792;2023-03-21T04:56:19;1003.53;;;10.49;60.91
54144;BME280;40050;47.324;18.792;2023-03-21T04:58:20;1003.52;;;10.41;60.76
54144;BME280;40050;47.324;18.792;2023-03-21T05:00:20;1003.55;;;10.35;60.78
54144;BME280;40050;47.324;18.792;2023-03-21T05:02:21;1003.59;;;10.29;60.90
54144;BME280;40050;47.324;18.792;2023-03-21T05:04:23;1003.61;;;10.24;61.15
54144;BME280;40050;47.324;18.792;2023-03-21T05:06:24;1003.60;;;10.19;61.36
54144;BME280;40050;47.324;18.792;2023-03-21T05:08:25;1003.63;;;10.17;61.43
54144;BME280;40050;47.324;18.792;2023-03-21T05:10:25;1003.67;;;10.13;61.64
54144;BME280;40050;47.324;18.792;2023-03-21T05:12:26;1003.65;;;10.08;62.09
54144;BME280;40050;47.324;18.792;2023-03-21T05:14:27;1003.66;;;10.09;62.53
54144;BME280;40050;47.324;18.792;2023-03-21T05:16:28;1003.67;;;10.07;62.84
54144;BME280;40050;47.324;18.792;2023-03-21T05:18:29;1003.71;;;10.07;63.33
54144;BME280;40050;47.324;18.792;2023-03-21T05:20:30;1003.74;;;10.08;63.61
54144;BME280;40050;47.324;18.792;2023-03-21T05:22:31;1003.79;;;10.08;63.85
54144;BME280;40050;47.324;18.792;2023-03-21T05:24:32;1003.78;;;10.08;64.28
54144;BME280;40050;47.324;18.792;2023-03-21T05:26:33;1003.69;;;10.04;64.45
54144;BME280;40050;47.324;18.792;2023-03-21T05:28:34;1003.81;;;10.12;64.48
54144;BME280;40050;47.324;18.792;2023-03-21T05:30:35;1003.85;;;10.13;64.80
54144;BME280;40050;47.324;18.792;2023-03-21T05:32:36;1003.81;;;10.17;64.95
54144;BME280;40050;47.324;18.792;2023-03-21T05:34:37;1003.80;;;10.21;65.17
54144;BME280;40050;47.324;18.792;2023-03-21T05:36:38;1003.83;;;10.28;65.33
54144;BME280;40050;47.324;18.792;2023-03-21T05:38:39;1003.84;;;10.32;65.74
54144;BME280;40050;47.324;18.792;2023-03-21T05:40:40;1003.86;;;10.40;65.85
54144;BME280;40050;47.324;18.792;2023-03-21T05:42:41;1003.92;;;10.50;66.05
54144;BME280;40050;47.324;18.792;2023-03-21T05:44:42;1003.82;;;10.59;66.28
54144;BME280;40050;47.324;18.792;2023-03-21T05:46:43;1003.81;;;10.65;66.47
54144;BME280;40050;47.324;18.792;2023-03-21T05:48:44;1003.81;;;10.75;66.43
54144;BME280;40050;47.324;18.792;2023-03-21T05:50:45;1003.89;;;10.89;66.71
54144;BME280;40050;47.324;18.792;2023-03-21T05:52:46;1003.88;;;11.01;66.82
54144;BME280;40050;47.324;18.792;2023-03-21T05:54:47;1003.82;;;11.16;66.63
54144;BME280;40050;47.324;18.792;2023-03-21T05:56:48;1003.88;;;11.30;66.67
54144;BME280;40050;47.324;18.792;2023-03-21T05:58:49;1003.87;;;11.39;66.76
54144;BME280;40050;47.324;18.792;2023-03-21T06:00:50;1003.84;;;11.51;66.67
54144;BME280;40050;47.324;18.792;2023-03-21T06:02:51;1003.90;;;11.69;67.48
54144;BME280;40050;47.324;18.792;2023-03-21T06:04:52;1003.91;;;11.79;67.14
54144;BME280;40050;47.324;18.792;2023-03-21T06:06:53;1003.91;;;11.90;66.95
54144;BME280;40050;47.324;18.792;2023-03-21T06:08:54;1003.84;;;11.98;66.72
54144;BME280;40050;47.324;18.792;2023-03-21T06:10:55;1003.85;;;12.10;66.62
54144;BME280;40050;47.324;18.792;2023-03-21T06:12:56;1003.82;;;12.24;66.50
54144;BME280;40050;47.324;18.792;2023-03-21T06:14:57;1003.47;;;12.17;66.45
54144;BME280;40050;47.324;18.792;2023-03-21T06:16:57;1003.87;;;12.53;66.38
54144;BME280;40050;47.324;18.792;2023-03-21T06:18:59;1003.83;;;12.62;65.89
54144;BME280;40050;47.324;18.792;2023-03-21T06:20:59;1003.87;;;12.72;65.50
54144;BME280;40050;47.324;18.792;2023-03-21T06:23:00;1003.84;;;12.80;65.05
54144;BME280;40050;47.324;18.792;2023-03-21T06:25:02;1003.90;;;12.90;64.77
54144;BME280;40050;47.324;18.792;2023-03-21T06:27:03;1003.83;;;12.93;64.39
54144;BME280;40050;47.324;18.792;2023-03-21T06:29:04;1003.90;;;13.06;64.18
54144;BME280;40050;47.324;18.792;2023-03-21T06:31:05;1003.60;;;12.98;64.02
54144;BME280;40050;47.324;18.792;2023-03-21T06:33:06;1003.93;;;13.28;63.86
54144;BME280;40050;47.324;18.792;2023-03-21T06:35:07;1003.93;;;13.42;64.00
54144;BME280;40050;47.324;18.792;2023-03-21T06:37:08;1003.93;;;13.56;63.36
54144;BME280;40050;47.324;18.792;2023-03-21T06:39:09;1003.88;;;13.70;63.26
54144;BME280;40050;47.324;18.792;2023-03-21T06:41:10;1003.92;;;13.85;62.73
54144;BME280;40050;47.324;18.792;2023-03-21T06:43:11;1003.91;;;14.01;62.20
54144;BME280;40050;47.324;18.792;2023-03-21T06:45:12;1003.88;;;14.13;61.75
54144;BME280;40050;47.324;18.792;2023-03-21T06:47:13;1003.70;;;14.13;61.57
54144;BME280;40050;47.324;18.792;2023-03-21T06:49:14;1003.91;;;14.35;60.89
54144;BME280;40050;47.324;18.792;2023-03-21T06:51:15;1003.95;;;14.46;60.58
54144;BME280;40050;47.324;18.792;2023-03-21T06:53:16;1003.96;;;14.59;60.79
54144;BME280;40050;47.324;18.792;2023-03-21T06:55:17;1003.98;;;14.76;59.81
54144;BME280;40050;47.324;18.792;2023-03-21T06:57:18;1004.03;;;14.84;59.71
54144;BME280;40050;47.324;18.792;2023-03-21T06:59:19;1004.01;;;14.86;58.80
54144;BME280;40050;47.324;18.792;2023-03-21T07:01:20;1003.96;;;14.95;59.23
54144;BME280;40050;47.324;18.792;2023-03-21T07:03:21;1003.94;;;15.02;57.99
54144;BME280;40050;47.324;18.792;2023-03-21T07:05:22;1003.62;;;14.88;58.33
54144;BME280;40050;47.324;18.792;2023-03-21T07:07:24;1003.93;;;15.20;58.29
54144;BME280;40050;47.324;18.792;2023-03-21T07:09:25;1003.96;;;15.30;58.09
54144;BME280;40050;47.324;18.792;2023-03-21T07:11:26;1003.93;;;15.40;57.43
54144;BME280;40050;47.324;18.792;2023-03-21T07:13:30;1003.99;;;15.54;57.39
54144;BME280;40050;47.324;18.792;2023-03-21T07:15:31;1003.98;;;15.61;57.41
54144;BME280;40050;47.324;18.792;2023-03-21T07:17:32;1003.99;;;15.76;56.93
54144;BME280;40050;47.324;18.792;2023-03-21T07:19:33;1003.96;;;15.91;56.75
54144;BME280;40050;47.324;18.792;2023-03-21T07:21:34;1003.95;;;16.05;56.15
54144;BME280;40050;47.324;18.792;2023-03-21T07:23:35;1004.04;;;16.22;56.45
54144;BME280;40050;47.324;18.792;2023-03-21T07:25:36;1004.02;;;16.38;56.04
54144;BME280;40050;47.324;18.792;2023-03-21T07:27:37;1004.07;;;16.52;54.67
54144;BME280;40050;47.324;18.792;2023-03-21T07:29:38;1004.01;;;16.58;54.43
54144;BME280;40050;47.324;18.792;2023-03-21T07:31:39;1004.07;;;16.66;53.69
54144;BME280;40050;47.324;18.792;2023-03-21T07:33:40;1004.16;;;16.67;52.99
54144;BME280;40050;47.324;18.792;2023-03-21T07:35:41;1004.15;;;16.74;53.50
54144;BME280;40050;47.324;18.792;2023-03-21T07:37:42;1003.94;;;16.64;52.69
54144;BME280;40050;47.324;18.792;2023-03-21T07:39:43;1004.10;;;16.79;52.19
54144;BME280;40050;47.324;18.792;2023-03-21T07:41:44;1004.18;;;16.92;52.56
54144;BME280;40050;47.324;18.792;2023-03-21T07:43:45;1004.16;;;16.97;52.53
54144;BME280;40050;47.324;18.792;2023-03-21T07:45:46;1004.15;;;17.02;52.35
54144;BME280;40050;47.324;18.792;2023-03-21T07:47:47;1004.09;;;17.11;52.20
54144;BME280;40050;47.324;18.792;2023-03-21T07:49:47;1004.10;;;17.20;52.38
54144;BME280;40050;47.324;18.792;2023-03-21T07:51:48;1003.91;;;17.18;52.03
54144;BME280;40050;47.324;18.792;2023-03-21T07:53:49;1004.08;;;17.44;51.83
54144;BME280;40050;47.324;18.792;2023-03-21T07:55:51;1003.87;;;17.46;51.60
54144;BME280;40050;47.324;18.792;2023-03-21T07:57:52;1004.05;;;17.69;51.43
54144;BME280;40050;47.324;18.792;2023-03-21T07:59:53;1004.00;;;17.81;50.77
54144;BME280;40050;47.324;18.792;2023-03-21T08:01:54;1004.04;;;17.88;50.25
54144;BME280;40050;47.324;18.792;2023-03-21T08:03:55;1003.98;;;18.00;50.57
54144;BME280;40050;47.324;18.792;2023-03-21T08:05:57;1003.96;;;18.22;50.72
54144;BME280;40050;47.324;18.792;2023-03-21T08:07:58;1003.99;;;18.43;49.89
54144;BME280;40050;47.324;18.792;2023-03-21T08:09:59;1003.98;;;18.56;48.87
54144;BME280;40050;47.324;18.792;2023-03-21T08:12:00;1003.95;;;18.70;49.40
54144;BME280;40050;47.324;18.792;2023-03-21T08:14:01;1003.95;;;18.86;49.35
54144;BME280;40050;47.324;18.792;2023-03-21T08:16:02;1003.93;;;19.06;48.76
54144;BME280;40050;47.324;18.792;2023-03-21T08:18:04;1003.91;;;19.24;48.04
54144;BME280;40050;47.324;18.792;2023-03-21T08:20:05;1003.88;;;19.40;48.00
54144;BME280;40050;47.324;18.792;2023-03-21T08:22:06;1003.94;;;19.47;47.49
54144;BME280;40050;47.324;18.792;2023-03-21T08:24:07;1003.93;;;19.55;46.53
54144;BME280;40050;47.324;18.792;2023-03-21T08:26:08;1003.87;;;19.63;46.44
54144;BME280;40050;47.324;18.792;2023-03-21T08:28:09;1003.89;;;19.68;45.87
54144;BME280;40050;47.324;18.792;2023-03-21T08:30:11;1003.78;;;19.63;45.20
54144;BME280;40050;47.324;18.792;2023-03-21T08:32:12;1003.87;;;19.71;45.24
54144;BME280;40050;47.324;18.792;2023-03-21T08:34:13;1003.85;;;19.74;45.49
54144;BME280;40050;47.324;18.792;2023-03-21T08:36:14;1003.85;;;19.84;44.68
54144;BME280;40050;47.324;18.792;2023-03-21T08:38:15;1003.91;;;19.96;45.50
54144;BME280;40050;47.324;18.792;2023-03-21T08:40:17;1003.82;;;20.12;45.37
54144;BME280;40050;47.324;18.792;2023-03-21T08:42:18;1003.92;;;20.36;44.01
54144;BME280;40050;47.324;18.792;2023-03-21T08:44:19;1003.87;;;20.49;43.60
54144;BME280;40050;47.324;18.792;2023-03-21T08:46:20;1003.92;;;20.64;43.75
54144;BME280;40050;47.324;18.792;2023-03-21T08:48:21;1003.61;;;20.57;43.00
54144;BME280;40050;47.324;18.792;2023-03-21T08:50:23;1003.90;;;20.83;42.88
54144;BME280;40050;47.324;18.792;2023-03-21T08:52:24;1003.88;;;20.97;42.45
54144;BME280;40050;47.324;18.792;2023-03-21T08:54:26;1003.87;;;21.06;41.65
54144;BME280;40050;47.324;18.792;2023-03-21T08:56:26;1003.82;;;21.12;41.98
54144;BME280;40050;47.324;18.792;2023-03-21T08:58:27;1003.90;;;21.23;41.43
54144;BME280;40050;47.324;18.792;2023-03-21T09:00:28;1003.90;;;21.27;41.21
54144;BME280;40050;47.324;18.792;2023-03-21T09:02:29;1003.95;;;21.21;40.56
54144;BME280;40050;47.324;18.792;2023-03-21T09:04:30;1003.96;;;21.09;40.42
54144;BME280;40050;47.324;18.792;2023-03-21T09:06:31;1004.01;;;20.89;40.63
54144;BME280;40050;47.324;18.792;2023-03-21T09:08:32;1003.96;;;20.72;40.64
54144;BME280;40050;47.324;18.792;2023-03-21T09:10:33;1004.00;;;20.59;40.91
54144;BME280;40050;47.324;18.792;2023-03-21T09:12:34;1004.02;;;20.57;41.22
54144;BME280;40050;47.324;18.792;2023-03-21T09:14:35;1004.02;;;20.56;41.59
54144;BME280;40050;47.324;18.792;2023-03-21T09:16:35;1003.98;;;20.52;41.83
54144;BME280;40050;47.324;18.792;2023-03-21T09:18:36;1003.98;;;20.41;42.07
54144;BME280;40050;47.324;18.792;2023-03-21T09:20:37;1004.03;;;20.36;41.87
54144;BME280;40050;47.324;18.792;2023-03-21T09:22:39;1003.99;;;20.33;41.62
54144;BME280;40050;47.324;18.792;2023-03-21T09:24:39;1003.96;;;20.25;41.70
54144;BME280;40050;47.324;18.792;2023-03-21T09:26:40;1003.99;;;20.25;41.81
54144;BME280;40050;47.324;18.792;2023-03-21T09:28:41;1003.94;;;20.19;42.08
54144;BME280;40050;47.324;18.792;2023-03-21T09:30:42;1003.95;;;20.35;42.46
54144;BME280;40050;47.324;18.792;2023-03-21T09:32:43;1003.93;;;20.37;42.54
54144;BME280;40050;47.324;18.792;2023-03-21T09:34:44;1004.04;;;20.41;41.79
54144;BME280;40050;47.324;18.792;2023-03-21T09:36:45;1003.95;;;20.48;41.45
54144;BME280;40050;47.324;18.792;2023-03-21T09:38:47;1003.93;;;20.52;41.57
54144;BME280;40050;47.324;18.792;2023-03-21T09:43:29;1003.90;;;20.54;42.33
54144;BME280;40050;47.324;18.792;2023-03-21T09:45:40;1003.92;;;20.59;41.62
54144;BME280;40050;47.324;18.792;2023-03-21T09:47:43;1003.87;;;20.56;41.79
54144;BME280;40050;47.324;18.792;2023-03-21T09:49:45;1003.92;;;20.49;41.79
54144;BME280;40050;47.324;18.792;2023-03-21T09:51:48;1003.87;;;20.42;40.75
54144;BME280;40050;47.324;18.792;2023-03-21T09:53:49;1003.89;;;20.32;40.95
54144;BME280;40050;47.324;18.792;2023-03-21T09:55:51;1003.92;;;20.26;41.62
54144;BME280;40050;47.324;18.792;2023-03-21T09:58:35;1003.88;;;20.30;42.05
54144;BME280;40050;47.324;18.792;2023-03-21T10:00:11;1003.92;;;20.45;41.67
54144;BME280;40050;47.324;18.792;2023-03-21T10:04:40;1003.85;;;20.81;42.17
54144;BME280;40050;47.324;18.792;2023-03-21T10:06:40;1003.75;;;20.96;41.07
54144;BME280;40050;47.324;18.792;2023-03-21T10:08:44;1003.79;;;21.12;40.86
54144;BME280;40050;47.324;18.792;2023-03-21T10:10:47;1003.76;;;21.20;40.87
54144;BME280;40050;47.324;18.792;2023-03-21T10:12:49;1003.75;;;21.20;40.10
54144;BME280;40050;47.324;18.792;2023-03-21T10:14:52;1003.75;;;21.16;40.54
54144;BME280;40050;47.324;18.792;2023-03-21T10:16:56;1003.74;;;21.24;38.90
54144;BME280;40050;47.324;18.792;2023-03-21T10:18:58;1003.70;;;21.14;38.33
54144;BME280;40050;47.324;18.792;2023-03-21T10:21:00;1003.70;;;21.10;38.71
54144;BME280;40050;47.324;18.792;2023-03-21T10:23:03;1003.73;;;21.04;39.48
54144;BME280;40050;47.324;18.792;2023-03-21T10:25:05;1003.66;;;21.00;39.58
54144;BME280;40050;47.324;18.792;2023-03-21T10:27:08;1003.66;;;21.10;39.89
54144;BME280;40050;47.324;18.792;2023-03-21T10:29:11;1003.70;;;21.12;39.05
54144;BME280;40050;47.324;18.792;2023-03-21T10:31:20;1003.61;;;21.21;39.42
54144;BME280;40050;47.324;18.792;2023-03-21T10:33:23;1003.64;;;21.30;38.96
54144;BME280;40050;47.324;18.792;2023-03-21T10:35:26;1003.59;;;21.33;38.94
54144;BME280;40050;47.324;18.792;2023-03-21T10:37:27;1003.68;;;21.49;38.14
54144;BME280;40050;47.324;18.792;2023-03-21T10:39:37;1003.59;;;21.49;37.42
54144;BME280;40050;47.324;18.792;2023-03-21T10:41:39;1003.66;;;21.60;37.93
54144;BME280;40050;47.324;18.792;2023-03-21T10:43:40;1003.60;;;21.60;38.10
54144;BME280;40050;47.324;18.792;2023-03-21T10:45:43;1003.64;;;21.70;37.88
54144;BME280;40050;47.324;18.792;2023-03-21T10:47:48;1003.63;;;21.60;37.45
54144;BME280;40050;47.324;18.792;2023-03-21T10:49:49;1003.54;;;21.58;38.14
54144;BME280;40050;47.324;18.792;2023-03-21T10:51:51;1003.57;;;21.65;38.18
54144;BME280;40050;47.324;18.792;2023-03-21T10:53:54;1003.54;;;21.63;37.25
54144;BME280;40050;47.324;18.792;2023-03-21T10:55:56;1003.49;;;21.62;37.92
54144;BME280;40050;47.324;18.792;2023-03-21T10:58:02;1003.48;;;21.60;37.92
54144;BME280;40050;47.324;18.792;2023-03-21T11:00:04;1003.46;;;21.50;37.79
54144;BME280;40050;47.324;18.792;2023-03-21T11:02:05;1003.44;;;21.43;37.85
54144;BME280;40050;47.324;18.792;2023-03-21T11:04:15;1003.41;;;21.42;37.89
54144;BME280;40050;47.324;18.792;2023-03-21T11:06:26;1003.39;;;21.39;37.38
54144;BME280;40050;47.324;18.792;2023-03-21T11:08:28;1003.36;;;21.33;37.60
54144;BME280;40050;47.324;18.792;2023-03-21T11:10:30;1003.03;;;21.16;37.67
54144;BME280;40050;47.324;18.792;2023-03-21T11:12:36;1003.25;;;21.37;37.64
54144;BME280;40050;47.324;18.792;2023-03-21T11:14:39;1003.25;;;21.42;38.29